Time;durP1;ratioP1;P1;durP2;ratioP2;P2;SDS_P1;SDS_P2;PMS_P1;PMS_P2;Temp;Humidity;BMP_temperature;BMP_pressure;BME280_temperature;BME280_humidity;BME280_pressure;Samples;Min_cycle;Max_cycle;Signal;HPM_P1;HPM_P2
2024/02/08 00:01:44;;;;;;;57.65;9.07;;;11.00;99.90;;;;;;5069690;28;20039;-50
2024/02/08 00:04:10;;;;;;;50.55;8.40;;;11.00;99.90;;;;;;5069585;28;20065;-50
2024/02/08 00:06:36;;;;;;;56.50;9.85;;;11.00;99.90;;;;;;5068417;28;20025;-50
2024/02/08 00:09:01;;;;;;;54.17;9.45;;;11.00;99.90;;;;;;5069626;28;20029;-49
2024/02/08 00:11:28;;;;;;;45.08;7.88;;;11.00;99.90;;;;;;5069564;28;20029;-50
2024/02/08 00:13:54;;;;;;;44.75;8.25;;;10.90;99.90;;;;;;5069604;28;20059;-50
2024/02/08 00:16:19;;;;;;;42.03;7.32;;;10.90;99.90;;;;;;5068201;28;20025;-50
2024/02/08 00:18:45;;;;;;;31.80;7.55;;;10.90;99.90;;;;;;5068196;28;20036;-50
2024/02/08 00:21:12;;;;;;;61.83;9.15;;;10.90;99.90;;;;;;5068178;28;20086;-50
2024/02/08 00:23:38;;;;;;;43.25;8.48;;;10.90;99.90;;;;;;5068106;28;20056;-49
2024/02/08 00:26:04;;;;;;;31.65;7.60;;;10.90;99.90;;;;;;5068151;28;20051;-49
2024/02/08 00:28:29;;;;;;;46.60;8.32;;;10.90;99.90;;;;;;5069152;28;20119;-49
2024/02/08 00:30:55;;;;;;;39.80;7.35;;;10.90;99.90;;;;;;5068064;28;20025;-50
2024/02/08 00:33:22;;;;;;;44.40;8.23;;;10.90;99.90;;;;;;5067907;28;20033;-49
2024/02/08 00:35:48;;;;;;;41.97;7.95;;;10.90;99.90;;;;;;5069100;28;20043;-50
2024/02/08 00:38:14;;;;;;;33.58;7.25;;;10.90;99.90;;;;;;5050925;28;20123;-50
2024/02/08 00:40:39;;;;;;;28.50;6.53;;;10.90;99.90;;;;;;5067887;28;20036;-50
2024/02/08 00:43:06;;;;;;;36.83;7.40;;;10.90;99.90;;;;;;5068842;28;20094;-49
2024/02/08 00:45:35;;;;;;;40.40;7.35;;;10.90;99.90;;;;;;5067782;28;20060;-50
2024/02/08 00:48:02;;;;;;;31.70;6.75;;;10.90;99.90;;;;;;5067745;28;20026;-50
2024/02/08 00:50:27;;;;;;;36.53;7.32;;;10.90;99.90;;;;;;5067489;28;20045;-49
2024/02/08 00:52:53;;;;;;;39.38;7.40;;;10.80;99.90;;;;;;5068801;28;20047;-49
2024/02/08 00:55:19;;;;;;;27.05;6.05;;;10.90;99.90;;;;;;5067464;28;20119;-50
2024/02/08 00:57:45;;;;;;;35.95;8.25;;;10.80;99.90;;;;;;5067341;28;20037;-50
2024/02/08 01:00:11;;;;;;;43.28;6.82;;;10.80;99.90;;;;;;5068742;28;20051;-49
2024/02/08 01:02:37;;;;;;;34.80;6.97;;;10.80;99.90;;;;;;5050881;28;20444;-50
2024/02/08 01:05:03;;;;;;;33.83;6.82;;;10.80;99.90;;;;;;5068310;28;20039;-50
2024/02/08 01:07:31;;;;;;;27.20;5.50;;;10.80;99.90;;;;;;5068398;28;20028;-50
2024/02/08 01:09:57;;;;;;;32.03;6.25;;;10.80;99.90;;;;;;5068310;28;20017;-49
2024/02/08 01:12:23;;;;;;;33.60;6.70;;;10.80;99.90;;;;;;5067104;28;20040;-50
2024/02/08 01:14:49;;;;;;;29.38;6.05;;;10.80;99.90;;;;;;5050379;28;20455;-49
2024/02/08 01:17:15;;;;;;;38.50;6.68;;;10.80;99.90;;;;;;5067166;28;20027;-50
2024/02/08 01:19:41;;;;;;;26.10;6.18;;;10.80;99.90;;;;;;5068294;28;20408;-50
2024/02/08 01:22:07;;;;;;;29.30;6.00;;;10.80;99.90;;;;;;5066909;28;20124;-49
2024/02/08 01:24:32;;;;;;;31.83;6.05;;;10.80;99.90;;;;;;5066848;28;20092;-49
2024/02/08 01:26:58;;;;;;;25.20;5.57;;;10.80;99.90;;;;;;5068146;28;20397;-50
2024/02/08 01:29:25;;;;;;;25.20;6.15;;;10.80;99.90;;;;;;5068137;28;20037;-50
2024/02/08 01:31:53;;;;;;;18.95;5.05;;;10.80;99.90;;;;;;5050300;28;20021;-50
2024/02/08 01:34:19;;;;;;;33.20;6.15;;;10.70;99.90;;;;;;5066620;28;20115;-49
2024/02/08 01:36:46;;;;;;;35.08;6.35;;;10.80;99.90;;;;;;5066619;28;20063;-50
2024/02/08 01:39:13;;;;;;;25.58;5.72;;;10.80;99.90;;;;;;5067891;28;20100;-50
2024/02/08 01:41:42;;;;;;;25.23;4.93;;;10.80;99.90;;;;;;5066887;28;20075;-49
2024/02/08 01:44:09;;;;;;;23.92;6.15;;;10.80;99.90;;;;;;5050425;28;20075;-50
2024/02/08 01:46:38;;;;;;;22.77;5.32;;;10.70;99.90;;;;;;5066665;28;20047;-50
2024/02/08 01:49:08;;;;;;;32.83;5.47;;;10.80;99.90;;;;;;5067075;28;20037;-50
2024/02/08 01:51:34;;;;;;;27.10;6.40;;;10.80;99.90;;;;;;5067597;28;20104;-50
2024/02/08 01:54:01;;;;;;;19.70;5.28;;;10.70;99.90;;;;;;5066298;28;20033;-49
2024/02/08 01:56:28;;;;;;;23.33;5.95;;;10.70;99.90;;;;;;5066471;28;20025;-49
2024/02/08 01:58:54;;;;;;;19.75;5.22;;;10.70;99.90;;;;;;5049511;28;20039;-50
2024/02/08 02:01:22;;;;;;;25.83;5.70;;;10.70;99.90;;;;;;5066348;28;20080;-50
2024/02/08 02:03:48;;;;;;;22.63;5.22;;;10.70;99.90;;;;;;5067471;28;20032;-50
2024/02/08 02:06:14;;;;;;;26.58;5.78;;;10.70;99.90;;;;;;5067318;28;20021;-50
2024/02/08 02:08:41;;;;;;;17.75;4.70;;;10.70;99.90;;;;;;5049592;28;20044;-50
2024/02/08 02:11:22;;;;;;;22.00;5.30;;;10.70;99.90;;;;;;5067344;28;20025;-50
2024/02/08 02:13:48;;;;;;;16.52;4.95;;;10.70;99.90;;;;;;5065947;28;20033;-50
2024/02/08 02:16:14;;;;;;;19.80;4.88;;;10.70;99.90;;;;;;5066023;28;20031;-49
2024/02/08 02:18:39;;;;;;;28.15;4.90;;;10.70;99.90;;;;;;5065756;28;20035;-49
2024/02/08 02:21:05;;;;;;;21.60;4.55;;;10.60;99.90;;;;;;5048916;28;20092;-49
2024/02/08 02:23:31;;;;;;;20.05;4.68;;;10.60;99.90;;;;;;5067384;28;20033;-50
2024/02/08 02:25:58;;;;;;;20.17;4.50;;;10.70;99.90;;;;;;5065850;28;20025;-50
2024/02/08 02:28:24;;;;;;;17.20;4.13;;;10.60;99.90;;;;;;5065756;28;20040;-50
2024/02/08 02:30:50;;;;;;;20.98;4.65;;;10.60;99.90;;;;;;5065901;28;20084;-50
2024/02/08 02:33:16;;;;;;;18.40;3.97;;;10.60;99.90;;;;;;5049178;28;20029;-50
2024/02/08 02:35:48;;;;;;;21.35;5.25;;;10.60;99.90;;;;;;5049029;28;20028;-50
2024/02/08 02:38:15;;;;;;;15.90;3.83;;;10.60;99.90;;;;;;5050128;28;20100;-50
2024/02/08 02:40:41;;;;;;;18.05;4.13;;;10.60;99.90;;;;;;5049296;28;20051;-50
2024/02/08 02:43:09;;;;;;;12.85;3.63;;;10.60;99.90;;;;;;5066827;28;20033;-49
2024/02/08 02:45:35;;;;;;;13.32;3.90;;;10.60;99.90;;;;;;5066560;28;20021;-50
2024/02/08 02:48:02;;;;;;;19.13;4.25;;;10.60;99.90;;;;;;5065372;28;20029;-49
2024/02/08 02:50:27;;;;;;;20.45;4.47;;;10.60;99.90;;;;;;5066156;28;20024;-49
2024/02/08 02:52:53;;;;;;;16.08;4.57;;;10.60;99.90;;;;;;5066064;28;20037;-50
2024/02/08 02:55:19;;;;;;;18.90;3.90;;;10.60;99.90;;;;;;5065518;28;20056;-49
2024/02/08 02:57:45;;;;;;;17.90;4.47;;;10.60;99.90;;;;;;5065123;28;20037;-49
2024/02/08 03:00:24;;;;;;;18.95;4.50;;;10.60;99.90;;;;;;5066536;28;20101;-50
2024/02/08 03:02:52;;;;;;;16.35;4.55;;;10.60;99.90;;;;;;5066320;28;20512;-49
2024/02/08 03:05:20;;;;;;;10.93;3.50;;;10.60;99.90;;;;;;5066268;28;20033;-49
2024/02/08 03:07:48;;;;;;;10.68;3.72;;;10.60;99.90;;;;;;5066363;28;20033;-50
2024/02/08 03:10:13;;;;;;;16.83;3.85;;;10.60;99.90;;;;;;5065171;28;20542;-49
2024/02/08 03:12:40;;;;;;;12.55;3.47;;;10.60;99.90;;;;;;5066299;28;20033;-50
2024/02/08 03:15:09;;;;;;;15.68;3.38;;;10.50;99.90;;;;;;5066014;28;20085;-50
2024/02/08 03:17:38;;;;;;;13.40;3.17;;;10.60;99.90;;;;;;5048906;28;20025;-50
2024/02/08 03:20:08;;;;;;;12.73;3.55;;;10.60;99.90;;;;;;5048792;28;20116;-50
2024/02/08 03:22:36;;;;;;;13.23;4.32;;;10.50;99.90;;;;;;5064887;28;20025;-49
2024/02/08 03:25:04;;;;;;;10.27;3.47;;;10.50;99.90;;;;;;5064983;28;20029;-50
2024/02/08 03:27:32;;;;;;;8.63;3.47;;;10.50;99.90;;;;;;5066185;28;20075;-50
2024/02/08 03:30:02;;;;;;;18.58;4.65;;;10.60;99.90;;;;;;5064822;28;20511;-50
2024/02/08 03:32:31;;;;;;;11.90;3.25;;;10.50;99.90;;;;;;5064798;28;20021;-50
2024/02/08 03:34:56;;;;;;;11.10;3.33;;;10.50;99.90;;;;;;5066110;28;20078;-50
2024/02/08 03:37:22;;;;;;;11.13;3.00;;;10.50;99.90;;;;;;5065773;28;20041;-50
2024/02/08 03:39:48;;;;;;;11.65;2.97;;;10.50;99.90;;;;;;5031735;28;20519;-50
2024/02/08 03:42:16;;;;;;;15.00;3.38;;;10.50;99.90;;;;;;5064748;28;20029;-50
2024/02/08 03:44:44;;;;;;;7.25;2.83;;;10.50;99.90;;;;;;5065906;28;20029;-50
2024/02/08 03:47:12;;;;;;;12.30;2.90;;;10.50;99.90;;;;;;5048431;28;20025;-49
2024/02/08 03:49:38;;;;;;;8.40;3.22;;;10.50;99.90;;;;;;5066100;28;20081;-50
2024/02/08 03:52:04;;;;;;;8.57;2.97;;;10.50;99.90;;;;;;5064742;28;20029;-49
2024/02/08 03:54:33;;;;;;;8.75;2.65;;;10.50;99.90;;;;;;5064540;28;20048;-50
2024/02/08 03:57:05;;;;;;;10.60;3.28;;;10.50;99.90;;;;;;5064599;28;20025;-50
2024/02/08 03:59:40;;;;;;;10.32;3.03;;;10.50;99.90;;;;;;5065974;28;20040;-50
2024/02/08 04:02:06;;;;;;;11.60;3.55;;;10.50;99.90;;;;;;5064816;28;20033;-50
2024/02/08 04:04:54;;;;;;;10.63;2.80;;;10.50;99.90;;;;;;5047761;28;20068;-50
2024/02/08 04:07:21;;;;;;;8.45;3.10;;;10.50;99.90;;;;;;5064290;28;20036;-50
2024/02/08 04:09:55;;;;;;;8.45;2.88;;;10.50;99.90;;;;;;5048284;28;20029;-50
2024/02/08 04:53:37;;;;;;;8.30;2.85;;;10.50;99.90;;;;;;5068926;28;20063;-50
2024/02/08 04:56:12;;;;;;;11.73;2.65;;;10.40;99.90;;;;;;5067422;28;20111;-50
2024/02/08 04:58:40;;;;;;;13.75;3.17;;;10.50;99.90;;;;;;5068866;28;20044;-49
2024/02/08 05:01:08;;;;;;;12.77;2.25;;;10.40;99.90;;;;;;5068689;28;20055;-50
2024/02/08 05:03:37;;;;;;;6.03;1.85;;;10.50;99.90;;;;;;5067206;28;20033;-50
2024/02/08 05:06:14;;;;;;;6.95;2.53;;;10.50;99.90;;;;;;5050630;28;20087;-50
2024/02/08 05:08:46;;;;;;;4.72;2.22;;;10.50;99.90;;;;;;5051789;28;20087;-50
2024/02/08 05:11:14;;;;;;;6.47;2.22;;;10.50;99.90;;;;;;5067127;28;20073;-50
2024/02/08 05:13:44;;;;;;;8.65;2.80;;;10.50;99.90;;;;;;5068232;28;20088;-50
2024/02/08 05:16:16;;;;;;;9.07;2.63;;;10.50;99.90;;;;;;5068413;28;20032;-49
2024/02/08 05:18:45;;;;;;;5.95;2.10;;;10.40;99.90;;;;;;5068454;28;20029;-49
2024/02/08 05:21:11;;;;;;;9.40;2.13;;;10.50;99.90;;;;;;5067118;28;20048;-49
2024/02/08 05:23:43;;;;;;;7.10;2.08;;;10.50;99.90;;;;;;5067929;28;20037;-50
2024/02/08 05:26:18;;;;;;;9.40;2.40;;;10.50;99.90;;;;;;5067407;28;20017;-50
2024/02/08 05:28:46;;;;;;;9.80;2.60;;;10.50;99.90;;;;;;5068225;28;20029;-49
2024/02/08 05:31:12;;;;;;;9.25;2.70;;;10.50;99.90;;;;;;5066821;28;20017;-50
2024/02/08 05:33:40;;;;;;;8.13;2.40;;;10.50;99.90;;;;;;5066760;28;20378;-50
2024/02/08 05:36:10;;;;;;;11.13;2.53;;;10.50;99.90;;;;;;5050350;28;20489;-50
2024/02/08 05:38:41;;;;;;;5.97;2.67;;;10.50;99.90;;;;;;5068071;28;20047;-50
2024/02/08 05:41:07;;;;;;;8.07;2.22;;;10.50;99.90;;;;;;5050770;28;20025;-50
2024/02/08 05:43:44;;;;;;;9.48;2.47;;;10.50;99.90;;;;;;5067771;28;20032;-50
2024/02/08 05:46:27;;;;;;;10.93;2.65;;;10.50;99.90;;;;;;5066733;28;20031;-50
2024/02/08 05:48:54;;;;;;;14.10;2.55;;;10.50;99.90;;;;;;5067578;28;20081;-50
2024/02/08 05:51:21;;;;;;;15.75;3.25;;;10.50;99.90;;;;;;5066338;28;20040;-49
2024/02/08 05:53:47;;;;;;;15.00;3.15;;;10.50;99.90;;;;;;5066253;28;20029;-50
2024/02/08 05:56:15;;;;;;;14.88;2.97;;;10.50;99.90;;;;;;5066541;28;20029;-50
2024/02/08 05:58:43;;;;;;;12.82;2.92;;;10.50;99.90;;;;;;5066271;28;20025;-50
2024/02/08 06:01:16;;;;;;;15.60;3.50;;;10.50;99.90;;;;;;5066408;28;20500;-50
2024/02/08 06:03:46;;;;;;;17.90;3.35;;;10.50;99.90;;;;;;5066193;28;20115;-50
2024/02/08 06:06:33;;;;;;;10.88;2.75;;;10.50;99.90;;;;;;5066372;28;20027;-50
2024/02/08 06:09:08;;;;;;;12.95;2.92;;;10.50;99.90;;;;;;5051951;28;20025;-49
2024/02/08 06:11:39;;;;;;;16.65;2.88;;;10.50;99.90;;;;;;5082412;28;20092;-50
2024/02/08 06:14:22;;;;;;;10.15;2.83;;;10.50;99.90;;;;;;5079791;28;20037;-50
2024/02/08 06:16:53;;;;;;;16.35;3.17;;;10.50;99.90;;;;;;5065627;28;20037;-50
2024/02/08 06:19:21;;;;;;;14.10;2.65;;;10.50;99.90;;;;;;5073544;28;20381;-50
2024/02/08 06:21:47;;;;;;;45.13;4.97;;;10.50;99.90;;;;;;5084602;28;20040;-50
2024/02/08 06:27:33;;;;;;;;;;;10.50;99.90;;;;;;5085649;28;20028;-50
2024/02/08 06:29:42;;;;;;;46.17;6.75;;;10.50;99.90;;;;;;5082934;28;19917;-50
2024/02/08 06:35:11;;;;;;;53.67;6.57;;;10.50;99.90;;;;;;5087154;28;20511;-49
2024/02/08 06:37:44;;;;;;;47.10;5.65;;;10.50;99.90;;;;;;5086447;28;20124;-50
2024/02/08 06:45:53;;;;;;;54.05;7.03;;;10.60;99.90;;;;;;5086556;28;20048;-50
2024/02/08 07:37:36;;;;;;;58.20;7.65;;;10.70;99.90;;;;;;5054347;28;20040;-50
2024/02/08 07:40:24;;;;;;;42.53;7.35;;;10.70;99.90;;;;;;5072248;28;20457;-50
2024/02/08 07:43:11;;;;;;;45.25;7.55;;;10.70;99.90;;;;;;5044810;28;20038;-49
2024/02/08 07:45:36;;;;;;;29.80;7.43;;;10.70;99.90;;;;;;5065172;28;20033;-50
2024/02/08 07:48:08;;;;;;;33.83;6.18;;;10.60;99.90;;;;;;5067607;28;20034;-50
2024/02/08 07:50:37;;;;;;;30.88;5.45;;;10.60;99.90;;;;;;5084023;28;20028;-50
2024/02/08 07:53:08;;;;;;;29.98;5.60;;;10.70;99.90;;;;;;5067973;28;20089;-50
2024/02/08 07:58:07;;;;;;;27.45;5.68;;;10.70;99.90;;;;;;5073716;28;20087;-50
2024/02/08 08:03:09;;;;;;;25.48;5.40;;;10.70;99.90;;;;;;5068628;28;20037;-49
2024/02/08 08:05:41;;;;;;;22.73;5.15;;;10.60;99.90;;;;;;5081657;28;20436;-50
2024/02/08 08:08:28;;;;;;;27.30;4.90;;;10.70;99.90;;;;;;5066469;28;20025;-50
2024/02/08 08:11:02;;;;;;;29.08;5.50;;;10.60;99.90;;;;;;5065208;28;20029;-49
2024/02/08 08:19:07;;;;;;;43.85;5.78;;;10.70;99.90;;;;;;5059393;28;20029;-50
2024/02/08 08:24:25;;;;;;;25.88;5.63;;;10.80;99.90;;;;;;5070761;28;20048;-50
2024/02/08 08:27:07;;;;;;;39.00;5.30;;;10.80;99.90;;;;;;5082550;28;20090;-50
2024/02/08 08:29:45;;;;;;;21.10;4.40;;;10.80;99.90;;;;;;5068722;28;20459;-49
2024/02/08 08:37:46;;;;;;;47.80;5.40;;;10.80;99.90;;;;;;5061560;28;20090;-49
2024/02/08 08:42:58;;;;;;;27.73;4.53;;;10.90;99.90;;;;;;5064187;28;20036;-49
2024/02/08 08:45:24;;;;;;;24.90;4.63;;;10.80;99.90;;;;;;5060973;28;20045;-50
2024/02/08 08:47:52;;;;;;;32.28;4.45;;;10.80;99.90;;;;;;5065530;28;20024;-50
2024/02/08 08:50:19;;;;;;;27.67;4.38;;;10.80;99.90;;;;;;5084072;28;20020;-50
2024/02/08 08:52:49;;;;;;;52.67;5.60;;;10.90;99.90;;;;;;5083398;28;20115;-50
2024/02/08 08:55:19;;;;;;;28.48;4.30;;;10.80;99.90;;;;;;5075226;28;20096;-49
2024/02/08 08:57:47;;;;;;;33.17;4.43;;;10.80;99.90;;;;;;5069851;28;20032;-50
2024/02/08 09:00:20;;;;;;;20.17;2.97;;;10.90;99.90;;;;;;5040192;28;20121;-50
2024/02/08 09:02:50;;;;;;;26.92;4.07;;;10.90;99.90;;;;;;5056440;28;20025;-50
2024/02/08 09:05:30;;;;;;;20.33;4.03;;;10.80;99.90;;;;;;5060056;28;20070;-49
2024/02/08 09:07:57;;;;;;;27.00;4.63;;;10.90;99.90;;;;;;5058699;28;20128;-50
2024/02/08 09:10:23;;;;;;;34.25;4.15;;;10.90;99.90;;;;;;5058455;28;20036;-50
2024/02/08 09:13:06;;;;;;;30.88;5.32;;;10.90;99.90;;;;;;5063982;28;20025;-50
2024/02/08 09:15:41;;;;;;;26.58;4.53;;;11.00;99.90;;;;;;5067245;28;20036;-50
2024/02/08 09:18:10;;;;;;;29.92;4.22;;;10.90;99.90;;;;;;5082700;28;20029;-50
2024/02/08 09:20:37;;;;;;;34.72;3.67;;;11.00;99.90;;;;;;5087992;28;20024;-50
2024/02/08 09:23:12;;;;;;;15.30;3.00;;;11.00;99.90;;;;;;5054662;28;20094;-50
2024/02/08 09:25:45;;;;;;;17.25;3.30;;;11.00;99.90;;;;;;5054152;28;20119;-50
2024/02/08 09:28:26;;;;;;;21.33;3.60;;;11.00;99.90;;;;;;5066105;28;20017;-49
2024/02/08 09:30:59;;;;;;;23.13;3.05;;;11.00;99.90;;;;;;5061491;28;20081;-49
2024/02/08 09:33:31;;;;;;;27.35;3.88;;;11.00;99.90;;;;;;5082484;28;20059;-50
2024/02/08 09:36:01;;;;;;;21.85;3.70;;;11.10;99.90;;;;;;5080385;28;20101;-50
2024/02/08 09:38:28;;;;;;;14.07;3.25;;;11.10;99.90;;;;;;5074798;28;20123;-50
2024/02/08 09:40:59;;;;;;;24.38;4.18;;;11.10;99.90;;;;;;5061790;28;20029;-49
2024/02/08 09:43:29;;;;;;;32.58;3.28;;;11.10;99.90;;;;;;5067981;28;20029;-50
2024/02/08 09:48:48;;;;;;;19.98;2.88;;;11.20;99.90;;;;;;5062437;28;20043;-49
2024/02/08 09:51:23;;;;;;;14.73;3.50;;;11.20;99.90;;;;;;5071240;28;20067;-50
2024/02/08 09:53:51;;;;;;;11.63;2.70;;;11.20;99.90;;;;;;5059305;28;20025;-49
2024/02/08 09:56:30;;;;;;;13.48;2.92;;;11.10;99.90;;;;;;5067764;28;20032;-50
2024/02/08 09:59:02;;;;;;;15.02;2.70;;;11.20;99.90;;;;;;5062923;28;20071;-50
2024/02/08 10:01:35;;;;;;;11.68;2.80;;;11.20;99.90;;;;;;5068672;28;20021;-50
2024/02/08 10:04:14;;;;;;;20.65;3.10;;;11.20;99.90;;;;;;5076321;28;20611;-50
2024/02/08 10:09:35;;;;;;;19.75;2.40;;;11.20;99.90;;;;;;5070522;28;20025;-50
2024/02/08 10:12:07;;;;;;;15.98;3.25;;;11.30;99.90;;;;;;5064425;28;20017;-49
2024/02/08 10:14:41;;;;;;;11.45;2.63;;;11.20;99.90;;;;;;5052872;28;20057;-50
2024/02/08 10:17:28;;;;;;;26.50;3.42;;;11.20;99.90;;;;;;5062350;28;20083;-50
2024/02/08 10:22:57;;;;;;;15.53;3.80;;;11.20;99.90;;;;;;5053604;28;20134;-50
2024/02/08 10:28:09;;;;;;;24.13;3.72;;;11.30;99.90;;;;;;5044996;28;20036;-50
2024/02/08 10:30:38;;;;;;;26.75;3.63;;;11.20;99.90;;;;;;5048864;28;20032;-50
2024/02/08 10:33:14;;;;;;;38.15;3.30;;;11.30;99.90;;;;;;5058056;28;20113;-50
2024/02/08 10:35:40;;;;;;;42.60;5.05;;;11.30;99.90;;;;;;5066196;28;20507;-50
2024/02/08 10:38:53;;;;;;;51.50;5.45;;;11.30;99.90;;;;;;5067659;28;20047;-50
2024/02/08 10:41:19;;;;;;;36.00;4.43;;;11.30;99.90;;;;;;5067098;28;20040;-50
2024/02/08 10:43:57;;;;;;;32.78;5.28;;;11.30;99.90;;;;;;5065253;28;20032;-50
2024/02/08 10:46:31;;;;;;;44.70;5.47;;;11.30;99.90;;;;;;5053628;28;20029;-49
2024/02/08 10:49:01;;;;;;;69.03;6.33;;;11.40;99.90;;;;;;5066963;28;20032;-50
2024/02/08 10:51:28;;;;;;;55.00;6.35;;;11.40;99.90;;;;;;5057149;28;20293;-49
2024/02/08 10:54:14;;;;;;;61.28;6.65;;;11.40;99.90;;;;;;5046411;28;20111;-50
2024/02/08 10:56:47;;;;;;;69.05;6.13;;;11.40;99.90;;;;;;5051894;28;20037;-50
2024/02/08 10:59:14;;;;;;;62.95;7.07;;;11.40;99.90;;;;;;5062541;28;20128;-50
2024/02/08 11:04:30;;;;;;;86.30;10.00;;;11.50;99.90;;;;;;5055133;28;20024;-49
2024/02/08 11:07:06;;;;;;;89.93;8.35;;;11.50;99.90;;;;;;5047973;28;20033;-50
2024/02/08 11:09:35;;;;;;;98.53;9.27;;;11.50;99.90;;;;;;5062007;28;20025;-49
2024/02/08 11:12:09;;;;;;;69.78;7.10;;;11.50;99.90;;;;;;5044683;28;20116;-50
2024/02/08 11:14:40;;;;;;;77.18;7.55;;;11.50;99.90;;;;;;5057500;28;20064;-49
2024/02/08 11:17:20;;;;;;;87.50;8.95;;;11.50;99.90;;;;;;5046939;28;20029;-50
2024/02/08 11:19:49;;;;;;;227.15;18.17;;;11.60;99.90;;;;;;5029341;28;20033;-49
2024/02/08 11:25:19;;;;;;;85.10;9.20;;;11.60;99.90;;;;;;5060280;28;20082;-50
2024/02/08 11:27:55;;;;;;;50.75;7.40;;;11.70;99.90;;;;;;5052530;28;20036;-50
2024/02/08 11:30:34;;;;;;;35.92;4.65;;;11.70;99.90;;;;;;5065412;28;20017;-50
2024/02/08 11:33:31;;;;;;;46.92;5.30;;;11.70;99.90;;;;;;5054942;28;20025;-49
2024/02/08 11:36:12;;;;;;;97.32;8.82;;;11.70;99.90;;;;;;5056696;28;20063;-50
2024/02/08 11:38:40;;;;;;;110.10;10.13;;;11.70;99.90;;;;;;5056021;28;20056;-50
2024/02/08 11:41:09;;;;;;;73.68;8.05;;;11.80;99.90;;;;;;5057256;28;20474;-50
2024/02/08 11:43:36;;;;;;;120.60;10.77;;;11.80;99.90;;;;;;5092916;28;20021;-50
2024/02/08 11:46:04;;;;;;;76.82;8.95;;;11.80;99.90;;;;;;5054827;28;20029;-50
2024/02/08 11:48:41;;;;;;;116.32;12.00;;;11.90;99.90;;;;;;5057584;28;20085;-49
2024/02/08 11:51:15;;;;;;;75.45;9.88;;;11.90;99.90;;;;;;5059200;28;20033;-50
2024/02/08 11:53:44;;;;;;;86.70;10.38;;;11.90;99.90;;;;;;5067388;28;20024;-50
2024/02/08 11:56:10;;;;;;;58.65;7.47;;;12.00;99.90;;;;;;5054043;28;20450;-49
2024/02/08 11:58:40;;;;;;;62.58;7.45;;;12.00;99.90;;;;;;5056452;28;20044;-50
2024/02/08 12:01:06;;;;;;;44.47;6.05;;;12.00;99.90;;;;;;5062044;28;20269;-50
2024/02/08 12:03:31;;;;;;;41.78;5.18;;;12.00;99.90;;;;;;5071209;28;20474;-50
2024/02/08 12:05:57;;;;;;;38.35;5.22;;;12.00;99.90;;;;;;5061715;28;20056;-50
2024/02/08 12:08:26;;;;;;;51.83;6.70;;;12.10;99.90;;;;;;5063114;28;20029;-50
2024/02/08 12:10:52;;;;;;;69.63;9.00;;;12.00;99.90;;;;;;5061045;28;20084;-50
2024/02/08 12:13:26;;;;;;;87.13;9.02;;;12.10;99.90;;;;;;5038771;28;20063;-50
2024/02/08 12:15:57;;;;;;;45.13;6.90;;;12.10;99.90;;;;;;5057221;28;20025;-50
2024/02/08 12:18:23;;;;;;;63.13;6.97;;;12.10;99.90;;;;;;5059362;28;20555;-50
2024/02/08 12:21:01;;;;;;;52.78;7.63;;;12.20;99.90;;;;;;5055017;28;20040;-49
2024/02/08 12:23:35;;;;;;;86.40;8.57;;;12.20;99.90;;;;;;5063293;28;20024;-50
2024/02/08 12:26:06;;;;;;;74.55;7.82;;;12.20;99.90;;;;;;5050333;28;20033;-50
2024/02/08 12:28:37;;;;;;;56.80;6.90;;;12.20;99.90;;;;;;5072211;28;20433;-50
2024/02/08 12:31:07;;;;;;;41.72;5.32;;;12.20;99.90;;;;;;5062133;28;20033;-50
2024/02/08 12:33:33;;;;;;;25.23;4.10;;;12.30;99.90;;;;;;5051861;28;20028;-50
2024/02/08 12:35:59;;;;;;;41.03;5.50;;;12.30;99.90;;;;;;5042504;28;20040;-49
2024/02/08 12:38:25;;;;;;;49.60;6.53;;;12.30;99.90;;;;;;5061344;28;20082;-49
2024/02/08 12:40:51;;;;;;;48.42;5.20;;;12.40;99.90;;;;;;5075379;28;20092;-50
2024/02/08 12:43:19;;;;;;;29.95;3.88;;;12.40;99.90;;;;;;5065249;28;20480;-50
2024/02/08 12:45:51;;;;;;;31.33;4.68;;;12.30;99.90;;;;;;5080247;28;20463;-50
2024/02/08 12:48:20;;;;;;;29.98;4.88;;;12.40;99.90;;;;;;5077598;28;20516;-50
2024/02/08 12:50:51;;;;;;;43.45;4.57;;;12.40;99.90;;;;;;5081720;28;20036;-50
2024/02/08 12:53:18;;;;;;;41.60;4.88;;;12.40;99.90;;;;;;5045337;28;20078;-50
2024/02/08 12:55:47;;;;;;;44.53;6.15;;;12.40;99.90;;;;;;5077084;28;20033;-50
2024/02/08 12:58:16;;;;;;;48.55;6.93;;;12.40;99.90;;;;;;5079468;28;20040;-50
2024/02/08 13:00:45;;;;;;;42.17;6.03;;;12.50;99.90;;;;;;5082917;28;21551;-50
2024/02/08 13:03:10;;;;;;;47.33;5.03;;;12.50;99.90;;;;;;5059457;28;20036;-50
2024/02/08 13:05:40;;;;;;;58.38;6.50;;;12.50;99.90;;;;;;5077265;28;20041;-50
2024/02/08 13:08:07;;;;;;;34.28;4.70;;;12.50;99.90;;;;;;5080570;28;20080;-50
2024/02/08 13:10:33;;;;;;;37.47;4.63;;;12.50;99.90;;;;;;5073840;28;20047;-50
2024/02/08 13:13:09;;;;;;;38.25;3.90;;;12.50;99.90;;;;;;5086294;28;20024;-50
2024/02/08 13:15:35;;;;;;;48.13;6.82;;;12.50;99.90;;;;;;5074785;28;20116;-50
2024/02/08 13:18:02;;;;;;;66.47;7.32;;;12.60;99.90;;;;;;5061765;28;20051;-50
2024/02/08 13:20:27;;;;;;;46.33;5.68;;;12.60;99.90;;;;;;5074590;28;20070;-50
2024/02/08 13:22:55;;;;;;;30.23;4.60;;;12.60;99.90;;;;;;5070352;28;20549;-50
2024/02/08 13:25:22;;;;;;;31.02;4.10;;;12.70;99.90;;;;;;5061998;28;20059;-50
2024/02/08 13:27:50;;;;;;;74.90;8.30;;;12.60;99.90;;;;;;5074819;28;20084;-50
2024/02/08 13:30:16;;;;;;;95.88;9.43;;;12.70;99.90;;;;;;5072136;28;20028;-50
2024/02/08 13:32:55;;;;;;;65.65;7.30;;;12.70;99.90;;;;;;5074968;28;20025;-50
2024/02/08 13:35:22;;;;;;;64.88;7.03;;;12.80;99.90;;;;;;5074255;28;20115;-50
2024/02/08 13:37:52;;;;;;;61.72;8.15;;;12.80;99.90;;;;;;5065337;28;20036;-50
2024/02/08 13:40:22;;;;;;;57.28;7.78;;;12.80;99.90;;;;;;5069897;28;20041;-50
2024/02/08 13:42:48;;;;;;;63.28;7.65;;;12.80;99.90;;;;;;5075243;28;20036;-50
2024/02/08 13:45:14;;;;;;;39.60;5.13;;;12.80;99.90;;;;;;5044249;28;20037;-50
2024/02/08 13:47:49;;;;;;;48.88;5.32;;;12.80;99.90;;;;;;5077868;28;20142;-50
2024/02/08 13:50:18;;;;;;;28.98;4.32;;;12.80;99.90;;;;;;5083253;28;20029;-50
2024/02/08 13:52:44;;;;;;;40.88;5.10;;;12.90;99.90;;;;;;5082703;28;20028;-50
2024/02/08 13:55:17;;;;;;;39.72;5.10;;;12.90;99.90;;;;;;5071706;28;20040;-50
2024/02/08 13:57:50;;;;;;;82.38;8.13;;;12.90;99.90;;;;;;5080578;28;20039;-50
2024/02/08 14:00:20;;;;;;;88.25;9.90;;;12.90;99.90;;;;;;5078224;28;20039;-50
2024/02/08 14:02:49;;;;;;;64.80;8.15;;;12.90;99.90;;;;;;5063985;28;20057;-50
2024/02/08 14:05:19;;;;;;;64.38;7.90;;;12.90;99.90;;;;;;5075808;28;20868;-50
2024/02/08 14:07:47;;;;;;;71.20;9.10;;;12.90;99.90;;;;;;5075722;28;20025;-50
2024/02/08 14:10:27;;;;;;;85.78;9.43;;;13.00;99.90;;;;;;5074478;28;20041;-50
2024/02/08 14:13:06;;;;;;;43.33;4.90;;;13.00;99.90;;;;;;5065318;28;20029;-50
2024/02/08 14:15:32;;;;;;;37.25;5.40;;;13.00;99.90;;;;;;5063993;28;20068;-50
2024/02/08 14:18:10;;;;;;;70.53;6.72;;;13.00;99.90;;;;;;5053798;28;20036;-50
2024/02/08 14:20:43;;;;;;;48.35;6.72;;;13.00;99.90;;;;;;5068286;28;20092;-50
2024/02/08 14:23:10;;;;;;;70.20;8.15;;;13.00;99.90;;;;;;5080901;28;20032;-50
2024/02/08 14:25:58;;;;;;;70.15;8.50;;;13.10;99.90;;;;;;5071565;28;20028;-50
2024/02/08 14:28:24;;;;;;;64.22;6.75;;;13.00;99.90;;;;;;5073270;28;20048;-48
2024/02/08 14:30:51;;;;;;;55.10;7.15;;;13.10;99.90;;;;;;5067418;28;20026;-49
2024/02/08 14:33:19;;;;;;;59.80;6.63;;;13.10;99.90;;;;;;5074792;28;20025;-50
2024/02/08 14:35:47;;;;;;;57.40;7.93;;;13.10;99.90;;;;;;5010857;28;1562301;-49
2024/02/08 14:38:14;;;;;;;89.03;9.93;;;13.10;99.90;;;;;;5052620;28;20044;-50
2024/02/08 14:40:40;;;;;;;93.55;9.48;;;13.10;99.90;;;;;;5055569;28;20033;-50
2024/02/08 14:43:06;;;;;;;114.75;11.45;;;13.10;99.90;;;;;;5042442;28;20116;-50
2024/02/08 14:45:39;;;;;;;120.53;14.07;;;13.20;99.90;;;;;;5052112;28;20028;-50
2024/02/08 14:48:10;;;;;;;122.35;13.93;;;13.20;99.90;;;;;;5050349;28;20089;-50
2024/02/08 14:50:58;;;;;;;99.60;11.65;;;13.20;99.90;;;;;;5052623;28;20021;-50
2024/02/08 14:53:24;;;;;;;126.40;12.43;;;13.20;99.90;;;;;;5057772;28;20077;-50
2024/02/08 14:55:51;;;;;;;57.28;7.18;;;13.20;99.90;;;;;;5061486;28;20132;-49
2024/02/08 14:58:33;;;;;;;86.60;9.93;;;13.20;99.90;;;;;;5056419;28;20032;-50
2024/02/08 15:01:30;;;;;;;126.95;12.98;;;13.20;99.90;;;;;;5054467;28;20035;-50
2024/02/08 15:03:58;;;;;;;143.70;14.95;;;13.30;99.90;;;;;;5054453;28;20040;-50
2024/02/08 15:06:39;;;;;;;103.90;13.48;;;13.30;99.90;;;;;;5059856;28;20040;-50
2024/02/08 15:12:51;;;;;;;192.60;20.63;;;13.30;99.90;;;;;;5039206;28;20117;-50
2024/02/08 15:14:42;;;;;;;233.48;25.17;;;13.40;99.90;;;;;;5057310;28;20033;-50